Time;durP1;ratioP1;P1;durP2;ratioP2;P2;SDS_P1;SDS_P2;PMS_P1;PMS_P2;Temp;Humidity;BMP_temperature;BMP_pressure;BME280_temperature;BME280_humidity;BME280_pressure;Samples;Min_cycle;Max_cycle;Signal;HPM_P1;HPM_P2
2023/01/22 00:01:38;;;;;;;52.13;22.50;;;-2.10;99.90;;;;;;5058828;28;20036;-69
2023/01/22 00:04:04;;;;;;;54.92;22.63;;;-2.10;99.90;;;;;;5052362;28;20029;-69
2023/01/22 00:06:30;;;;;;;52.53;23.30;;;-2.10;99.90;;;;;;5051008;28;20035;-69
2023/01/22 00:08:56;;;;;;;54.45;21.65;;;-2.10;99.90;;;;;;5052677;28;20032;-69
2023/01/22 00:11:22;;;;;;;51.72;21.60;;;-2.20;99.90;;;;;;5052326;28;20037;-69
2023/01/22 00:13:48;;;;;;;52.05;22.95;;;-2.20;99.90;;;;;;5052929;28;20021;-69
2023/01/22 00:16:15;;;;;;;52.25;23.60;;;-2.20;99.90;;;;;;5050585;28;20397;-68
2023/01/22 00:18:41;;;;;;;54.70;23.25;;;-2.10;99.90;;;;;;5052314;28;20032;-69
2023/01/22 00:21:07;;;;;;;54.40;24.08;;;-2.10;99.90;;;;;;5052492;28;20119;-69
2023/01/22 00:23:32;;;;;;;52.05;22.35;;;-2.10;99.90;;;;;;5034622;28;20027;-69
2023/01/22 00:26:10;;;;;;;56.45;25.70;;;-2.10;99.90;;;;;;5051349;28;20029;-68
2023/01/22 00:28:36;;;;;;;50.35;22.20;;;-2.10;99.90;;;;;;5052216;28;20052;-69
2023/01/22 00:31:04;;;;;;;55.08;24.75;;;-2.10;99.90;;;;;;5048593;28;20033;-69
2023/01/22 00:33:30;;;;;;;56.60;24.67;;;-2.10;99.90;;;;;;5043841;28;20032;-69
2023/01/22 00:35:56;;;;;;;49.88;21.52;;;-2.10;99.90;;;;;;5051529;28;20036;-70
2023/01/22 00:38:21;;;;;;;52.83;24.92;;;-2.10;99.90;;;;;;5052315;28;20061;-69
2023/01/22 00:40:47;;;;;;;57.28;24.67;;;-2.00;99.90;;;;;;5045702;28;20057;-69
2023/01/22 00:43:13;;;;;;;51.53;23.83;;;-2.00;99.90;;;;;;5052059;28;20028;-69
2023/01/22 00:45:38;;;;;;;53.05;22.98;;;-2.00;99.90;;;;;;5052245;28;20021;-69
2023/01/22 00:48:04;;;;;;;52.53;23.55;;;-2.00;99.90;;;;;;5052332;28;20029;-70
2023/01/22 00:50:30;;;;;;;56.08;22.92;;;-2.00;99.90;;;;;;5048836;28;20488;-69
2023/01/22 00:52:56;;;;;;;48.83;22.20;;;-1.90;99.90;;;;;;5051523;28;20047;-70
2023/01/22 00:55:22;;;;;;;51.50;22.70;;;-1.90;99.90;;;;;;5049968;28;20057;-69
2023/01/22 00:57:47;;;;;;;49.15;23.00;;;-1.90;99.90;;;;;;5060826;28;20056;-69
2023/01/22 01:00:14;;;;;;;52.03;24.77;;;-1.90;99.90;;;;;;5054021;28;20025;-70
2023/01/22 01:05:24;;;;;;;45.92;21.55;;;-1.90;99.90;;;;;;5055718;28;20086;-69
2023/01/22 01:07:50;;;;;;;46.95;20.88;;;-1.90;99.90;;;;;;5052820;28;20080;-70
2023/01/22 01:10:16;;;;;;;46.20;21.73;;;-1.90;99.90;;;;;;5049238;28;20520;-69
2023/01/22 01:12:41;;;;;;;44.28;20.30;;;-1.90;99.90;;;;;;5052054;28;20037;-69
2023/01/22 01:15:07;;;;;;;44.08;19.17;;;-1.90;99.90;;;;;;5051286;28;20036;-69
2023/01/22 01:17:34;;;;;;;47.88;21.05;;;-1.90;99.90;;;;;;5050878;28;20036;-70
2023/01/22 01:20:00;;;;;;;43.58;21.33;;;-1.80;99.90;;;;;;5050387;28;20495;-69
2023/01/22 01:22:25;;;;;;;46.95;20.75;;;-1.90;99.90;;;;;;5050345;28;20029;-70
2023/01/22 01:24:51;;;;;;;46.22;21.60;;;-1.80;99.90;;;;;;5050221;28;20095;-70
2023/01/22 01:27:16;;;;;;;43.08;19.48;;;-1.90;99.90;;;;;;5049787;28;20037;-70
2023/01/22 01:29:42;;;;;;;47.75;22.10;;;-1.80;99.90;;;;;;5051009;28;20116;-70
2023/01/22 01:32:07;;;;;;;47.35;21.58;;;-1.80;99.90;;;;;;5049110;28;20041;-71
2023/01/22 01:34:33;;;;;;;46.67;19.88;;;-1.80;99.90;;;;;;5051679;28;20025;-70
2023/01/22 01:36:58;;;;;;;42.42;19.17;;;-1.80;99.90;;;;;;5042905;28;20047;-71
2023/01/22 01:39:24;;;;;;;44.10;20.63;;;-1.70;99.90;;;;;;5042364;28;20074;-69
2023/01/22 01:41:50;;;;;;;44.28;20.52;;;-1.70;99.90;;;;;;5049790;28;20033;-70
2023/01/22 01:44:22;;;;;;;42.97;20.15;;;-1.70;99.90;;;;;;5050066;28;20459;-70
2023/01/22 01:46:53;;;;;;;47.92;21.80;;;-1.70;99.90;;;;;;5049323;28;20033;-70
2023/01/22 01:49:42;;;;;;;45.47;20.80;;;-1.70;99.90;;;;;;5047235;28;20044;-70
2023/01/22 01:52:10;;;;;;;45.25;21.35;;;-1.70;99.90;;;;;;5048997;28;20053;-70
2023/01/22 01:54:37;;;;;;;45.63;20.42;;;-1.70;99.90;;;;;;5049809;28;20068;-70
2023/01/22 01:57:11;;;;;;;37.67;19.05;;;-1.70;99.90;;;;;;5048307;28;20091;-71
2023/01/22 01:59:37;;;;;;;38.80;19.25;;;-1.70;99.90;;;;;;5049605;28;20032;-70
2023/01/22 02:02:03;;;;;;;45.83;19.25;;;-1.70;99.90;;;;;;5047422;28;20507;-71
2023/01/22 02:04:29;;;;;;;43.75;19.15;;;-1.70;99.90;;;;;;5049547;28;20033;-70
2023/01/22 02:06:55;;;;;;;42.30;20.05;;;-1.70;99.90;;;;;;5049986;28;20665;-70
2023/01/22 02:09:21;;;;;;;42.92;19.98;;;-1.70;99.90;;;;;;5050437;28;20530;-70
2023/01/22 02:11:48;;;;;;;41.40;20.38;;;-1.70;99.90;;;;;;5047581;28;20029;-71
2023/01/22 02:14:20;;;;;;;39.15;18.73;;;-1.70;99.90;;;;;;5059813;28;20021;-71
2023/01/22 02:16:45;;;;;;;41.28;20.35;;;-1.70;99.90;;;;;;5054387;28;20034;-70
2023/01/22 02:19:11;;;;;;;44.47;21.25;;;-1.70;99.90;;;;;;5049574;28;20032;-70
2023/01/22 02:21:40;;;;;;;40.47;20.30;;;-1.70;99.90;;;;;;5049294;28;20094;-70
2023/01/22 02:24:09;;;;;;;47.22;21.63;;;-1.80;99.90;;;;;;5046377;28;20118;-70
2023/01/22 02:26:35;;;;;;;43.55;20.50;;;-1.80;99.90;;;;;;5049983;28;20492;-70
2023/01/22 02:29:01;;;;;;;44.10;20.92;;;-1.80;99.90;;;;;;5055411;28;20053;-71
2023/01/22 02:31:27;;;;;;;50.72;21.27;;;-1.80;99.90;;;;;;5037111;28;20045;-70
2023/01/22 02:33:52;;;;;;;44.30;20.30;;;-1.80;99.90;;;;;;5050406;28;20362;-70
2023/01/22 02:36:18;;;;;;;42.80;20.35;;;-1.90;99.90;;;;;;5041016;28;20052;-70
2023/01/22 02:38:43;;;;;;;43.92;20.90;;;-1.90;99.90;;;;;;5048943;28;20028;-70
2023/01/22 02:41:10;;;;;;;41.42;20.08;;;-1.90;99.90;;;;;;5047778;28;20029;-70
2023/01/22 02:43:35;;;;;;;47.50;21.58;;;-1.90;99.90;;;;;;5050142;28;20508;-70
2023/01/22 02:46:01;;;;;;;45.63;21.02;;;-1.90;99.90;;;;;;5048756;28;20168;-70
2023/01/22 02:48:26;;;;;;;43.63;19.92;;;-1.90;99.90;;;;;;5047630;28;20407;-70
2023/01/22 02:50:52;;;;;;;42.25;19.83;;;-1.90;99.90;;;;;;5053822;28;20392;-70
2023/01/22 02:53:17;;;;;;;42.60;19.77;;;-1.90;99.90;;;;;;5054137;28;20064;-71
2023/01/22 02:55:45;;;;;;;43.38;19.70;;;-1.90;99.90;;;;;;5053540;28;20032;-71
2023/01/22 02:58:10;;;;;;;41.10;19.38;;;-1.90;99.90;;;;;;5054048;28;20101;-70
2023/01/22 03:00:36;;;;;;;44.85;19.63;;;-1.90;99.90;;;;;;5051927;28;20108;-71
2023/01/22 03:03:06;;;;;;;44.33;21.77;;;-1.80;99.90;;;;;;5052973;28;20476;-70
2023/01/22 03:05:35;;;;;;;44.53;21.83;;;-1.80;99.90;;;;;;5054174;28;20113;-71
2023/01/22 03:08:00;;;;;;;40.08;20.48;;;-1.70;99.90;;;;;;5053228;28;20048;-71
2023/01/22 03:10:26;;;;;;;46.63;21.75;;;-1.60;99.90;;;;;;5054000;28;20025;-70
2023/01/22 03:21:15;;;;;;;44.30;20.52;;;-1.40;99.90;;;;;;5053219;28;20416;-70
2023/01/22 03:23:43;;;;;;;40.35;20.67;;;-1.40;99.90;;;;;;5051797;28;20480;-71
2023/01/22 03:26:08;;;;;;;43.35;20.45;;;-1.40;99.90;;;;;;5052224;28;20078;-70
2023/01/22 03:28:35;;;;;;;44.53;19.63;;;-1.40;99.90;;;;;;5050228;28;20112;-70
2023/01/22 03:31:00;;;;;;;35.88;19.35;;;-1.40;99.90;;;;;;5052654;28;20061;-71
2023/01/22 03:33:26;;;;;;;39.65;19.10;;;-1.50;99.90;;;;;;5050992;28;20057;-70
2023/01/22 03:35:51;;;;;;;41.80;18.88;;;-1.50;99.90;;;;;;5060964;28;20502;-71
2023/01/22 03:38:17;;;;;;;38.97;17.70;;;-1.60;99.90;;;;;;5053859;28;20065;-71
2023/01/22 03:40:42;;;;;;;39.47;19.10;;;-1.60;99.90;;;;;;5050031;28;20061;-70
2023/01/22 03:43:08;;;;;;;39.83;18.73;;;-1.60;99.90;;;;;;5048270;28;20155;-71
2023/01/22 03:45:34;;;;;;;37.20;18.35;;;-1.50;99.90;;;;;;5053260;28;20047;-70
2023/01/22 03:48:01;;;;;;;39.95;17.40;;;-1.50;99.90;;;;;;5052483;28;20025;-70
2023/01/22 03:50:27;;;;;;;43.72;18.55;;;-1.40;99.90;;;;;;5051750;28;20103;-70
2023/01/22 03:52:52;;;;;;;41.10;17.83;;;-1.30;99.90;;;;;;5051017;28;20041;-71
2023/01/22 03:55:18;;;;;;;34.45;16.48;;;-1.30;99.90;;;;;;5052306;28;20083;-71
2023/01/22 03:57:43;;;;;;;32.92;16.17;;;-1.30;99.90;;;;;;5052109;28;20035;-70
2023/01/22 04:00:09;;;;;;;39.05;17.92;;;-1.20;99.90;;;;;;5052235;28;20036;-70
2023/01/22 04:02:36;;;;;;;42.15;17.80;;;-1.10;99.90;;;;;;5051951;28;20022;-71
2023/01/22 04:05:02;;;;;;;36.78;17.02;;;-1.10;99.90;;;;;;5052082;28;20449;-70
2023/01/22 04:07:27;;;;;;;44.88;19.05;;;-1.00;99.90;;;;;;5052059;28;20068;-70
2023/01/22 04:09:53;;;;;;;39.17;17.27;;;-0.90;99.90;;;;;;5049382;28;20036;-71
2023/01/22 04:12:18;;;;;;;36.45;18.65;;;-0.80;99.90;;;;;;5033356;28;20477;-71
2023/01/22 04:14:44;;;;;;;40.92;19.25;;;-0.80;99.90;;;;;;5052609;28;20029;-70
2023/01/22 04:17:10;;;;;;;38.92;18.52;;;-0.70;99.90;;;;;;5051559;28;20035;-71
2023/01/22 04:19:35;;;;;;;35.80;17.60;;;-0.60;99.90;;;;;;5052734;28;20393;-71
2023/01/22 04:22:01;;;;;;;33.00;17.00;;;-0.60;99.90;;;;;;5051238;28;20439;-71
2023/01/22 04:24:26;;;;;;;28.92;15.63;;;-0.60;99.90;;;;;;5050246;28;20378;-71
2023/01/22 04:26:52;;;;;;;35.63;17.02;;;-0.50;99.90;;;;;;5051523;28;20059;-70
2023/01/22 04:29:18;;;;;;;35.40;17.80;;;-0.50;99.90;;;;;;5051777;28;20084;-70
2023/01/22 04:31:43;;;;;;;31.80;16.92;;;-0.50;99.90;;;;;;5050714;28;20037;-70
2023/01/22 04:34:09;;;;;;;34.40;17.20;;;-0.50;99.90;;;;;;5049882;28;20028;-70
2023/01/22 04:36:35;;;;;;;34.45;17.08;;;-0.40;99.90;;;;;;5052153;28;20025;-71
2023/01/22 04:39:01;;;;;;;34.22;17.63;;;-0.40;99.90;;;;;;5051096;28;20155;-70
2023/01/22 04:41:26;;;;;;;33.97;16.73;;;-0.40;99.90;;;;;;5052224;28;20044;-71
2023/01/22 04:43:52;;;;;;;39.10;18.65;;;-0.40;99.90;;;;;;5050700;28;20017;-71
2023/01/22 04:46:18;;;;;;;36.30;17.67;;;-0.40;99.90;;;;;;5055127;28;20106;-71
2023/01/22 04:48:45;;;;;;;35.80;17.23;;;-0.40;99.90;;;;;;5047365;28;20366;-70
2023/01/22 04:51:10;;;;;;;32.08;16.90;;;-0.40;99.90;;;;;;5051621;28;20060;-70
2023/01/22 04:53:36;;;;;;;33.67;16.30;;;-0.40;99.90;;;;;;5048844;28;20069;-71
2023/01/22 04:56:02;;;;;;;32.08;14.88;;;-0.40;99.90;;;;;;5051457;28;20079;-71
2023/01/22 04:58:27;;;;;;;32.88;15.93;;;-0.40;99.90;;;;;;5051678;28;20029;-71
2023/01/22 05:00:57;;;;;;;35.63;16.63;;;-0.40;99.90;;;;;;5052042;28;20485;-70
2023/01/22 05:03:23;;;;;;;37.80;17.35;;;-0.40;99.90;;;;;;5058044;28;20464;-68
2023/01/22 05:05:48;;;;;;;38.13;18.40;;;-0.40;99.90;;;;;;5072080;28;20021;-68
2023/01/22 05:08:14;;;;;;;27.40;15.20;;;-0.40;99.90;;;;;;5057197;28;20029;-68
2023/01/22 05:10:39;;;;;;;36.35;18.73;;;-0.30;99.90;;;;;;5051400;28;20538;-69
2023/01/22 05:13:06;;;;;;;34.03;17.77;;;-0.30;99.90;;;;;;5031700;28;20036;-70
2023/01/22 05:15:32;;;;;;;36.50;17.58;;;-0.30;99.90;;;;;;5051894;28;20028;-71
2023/01/22 05:17:59;;;;;;;29.33;16.20;;;-0.30;99.90;;;;;;5050801;28;20025;-71
2023/01/22 05:20:25;;;;;;;30.63;16.58;;;-0.30;99.90;;;;;;5051908;28;20086;-71
2023/01/22 05:22:50;;;;;;;31.38;16.30;;;-0.30;99.90;;;;;;5050315;28;20112;-71
2023/01/22 05:25:16;;;;;;;31.38;16.83;;;-0.30;99.90;;;;;;5051007;28;20032;-71
2023/01/22 05:27:42;;;;;;;32.85;17.33;;;-0.30;99.90;;;;;;5050769;28;20384;-71
2023/01/22 05:30:08;;;;;;;33.20;19.45;;;-0.30;99.90;;;;;;5050121;28;20029;-71
2023/01/22 05:32:34;;;;;;;37.85;17.42;;;-0.30;99.90;;;;;;5032969;28;20044;-71
2023/01/22 05:34:59;;;;;;;33.67;16.63;;;-0.30;99.90;;;;;;5046222;28;20024;-71
2023/01/22 05:37:25;;;;;;;36.38;18.10;;;-0.30;99.90;;;;;;5049805;28;20025;-71
2023/01/22 05:39:51;;;;;;;29.38;16.13;;;-0.30;99.90;;;;;;5050329;28;20117;-71
2023/01/22 05:42:16;;;;;;;31.63;15.40;;;-0.20;99.90;;;;;;5046522;28;20532;-71
2023/01/22 05:44:42;;;;;;;35.53;17.90;;;-0.20;99.90;;;;;;5033659;28;20144;-71
2023/01/22 05:47:11;;;;;;;31.52;17.23;;;-0.20;99.90;;;;;;5032782;28;20112;-71
2023/01/22 05:49:36;;;;;;;30.60;16.83;;;-0.20;99.90;;;;;;5048984;28;20083;-71
2023/01/22 05:52:02;;;;;;;33.67;17.42;;;-0.20;99.90;;;;;;5050227;28;20036;-70
2023/01/22 05:54:27;;;;;;;31.08;16.83;;;-0.20;99.90;;;;;;5050379;28;20047;-71
2023/01/22 05:56:53;;;;;;;33.30;16.80;;;-0.20;99.90;;;;;;5043215;28;20029;-71
2023/01/22 05:59:18;;;;;;;31.05;15.55;;;-0.20;99.90;;;;;;5049959;28;20480;-70
2023/01/22 06:01:44;;;;;;;28.52;15.52;;;-0.20;99.90;;;;;;5048293;28;20039;-71
2023/01/22 06:04:09;;;;;;;32.67;16.48;;;-0.20;99.90;;;;;;5050172;28;20100;-70
2023/01/22 06:06:35;;;;;;;31.15;16.30;;;-0.20;99.90;;;;;;5045265;28;20027;-70
2023/01/22 06:09:01;;;;;;;31.55;17.35;;;-0.20;99.90;;;;;;5047307;28;20033;-71
2023/01/22 06:11:27;;;;;;;32.78;16.75;;;-0.20;99.90;;;;;;5045165;28;20088;-70
2023/01/22 06:13:52;;;;;;;30.40;18.17;;;-0.20;99.90;;;;;;5041031;28;20082;-70
2023/01/22 06:16:18;;;;;;;33.40;17.98;;;-0.20;99.90;;;;;;5046186;28;20032;-71
2023/01/22 06:18:44;;;;;;;31.27;16.25;;;-0.10;99.90;;;;;;5051068;28;20014;-71
2023/01/22 06:21:09;;;;;;;29.95;17.05;;;-0.10;99.90;;;;;;5049891;28;20033;-71
2023/01/22 06:23:35;;;;;;;31.35;16.77;;;-0.10;99.90;;;;;;5052673;28;20028;-71
2023/01/22 06:26:03;;;;;;;31.40;16.70;;;-0.10;99.90;;;;;;5052845;28;20029;-71
2023/01/22 06:28:29;;;;;;;30.38;16.08;;;-0.10;99.90;;;;;;5052818;28;20556;-71
2023/01/22 06:30:57;;;;;;;31.83;16.60;;;-0.10;99.90;;;;;;5050980;28;20381;-71
2023/01/22 06:33:23;;;;;;;30.95;16.75;;;-0.10;99.90;;;;;;5053217;28;20025;-71
2023/01/22 06:35:53;;;;;;;31.50;15.77;;;-0.10;99.90;;;;;;5052138;28;20027;-71
2023/01/22 06:38:19;;;;;;;28.95;16.67;;;-0.10;99.90;;;;;;5053661;28;20135;-70
2023/01/22 06:40:51;;;;;;;28.23;15.77;;;-0.10;99.90;;;;;;5054735;28;20029;-71
2023/01/22 06:43:16;;;;;;;23.83;14.02;;;-0.10;99.90;;;;;;5046290;28;20025;-70
2023/01/22 06:45:42;;;;;;;25.48;15.85;;;-0.10;99.90;;;;;;5038312;28;20090;-71
2023/01/22 06:48:07;;;;;;;28.08;15.20;;;-0.10;99.90;;;;;;5040027;28;20021;-71
2023/01/22 06:50:33;;;;;;;27.60;14.45;;;-0.10;99.90;;;;;;5047146;28;20033;-70
2023/01/22 06:53:00;;;;;;;30.90;15.10;;;-0.10;99.90;;;;;;5041313;28;20493;-70
2023/01/22 06:55:25;;;;;;;28.80;15.13;;;-0.10;99.90;;;;;;5047982;28;20021;-70
2023/01/22 06:57:53;;;;;;;26.52;14.10;;;-0.10;99.90;;;;;;5042629;28;20071;-69
2023/01/22 07:00:19;;;;;;;26.50;14.65;;;-0.10;99.90;;;;;;5049104;28;20029;-69
2023/01/22 07:02:45;;;;;;;23.42;14.02;;;-0.10;99.90;;;;;;5051978;28;20043;-69
2023/01/22 07:05:11;;;;;;;28.45;14.50;;;0.00;99.90;;;;;;5043515;28;20037;-70
2023/01/22 07:07:36;;;;;;;24.23;14.00;;;-0.10;99.90;;;;;;5051603;28;20124;-70
2023/01/22 07:10:02;;;;;;;25.42;14.85;;;0.00;99.90;;;;;;5053265;28;20112;-71
2023/01/22 07:12:28;;;;;;;29.02;15.13;;;-0.10;99.90;;;;;;5053727;28;20076;-70
2023/01/22 07:14:53;;;;;;;24.13;13.15;;;0.00;99.90;;;;;;5052301;28;20452;-70
2023/01/22 07:17:22;;;;;;;25.20;14.32;;;0.00;99.90;;;;;;5050776;28;20061;-70
2023/01/22 07:19:47;;;;;;;27.33;13.02;;;0.00;99.90;;;;;;5044038;28;20033;-70
2023/01/22 07:22:13;;;;;;;25.38;13.50;;;0.00;99.90;;;;;;5048599;28;20052;-70
2023/01/22 07:24:38;;;;;;;26.15;12.88;;;0.00;99.90;;;;;;5044541;28;20048;-70
2023/01/22 07:27:04;;;;;;;24.92;13.75;;;0.00;99.90;;;;;;5038155;28;20094;-71
2023/01/22 07:29:29;;;;;;;22.13;13.13;;;0.00;99.90;;;;;;5051329;28;20036;-70
2023/01/22 07:31:55;;;;;;;24.15;13.48;;;0.00;99.90;;;;;;5041611;28;20427;-71
2023/01/22 07:34:20;;;;;;;23.65;12.65;;;0.00;99.90;;;;;;5049251;28;20029;-70
2023/01/22 07:36:46;;;;;;;18.10;10.40;;;0.00;99.90;;;;;;5045086;28;20029;-70
2023/01/22 07:39:12;;;;;;;23.75;12.32;;;-0.10;99.90;;;;;;5052674;28;20637;-70
2023/01/22 07:41:37;;;;;;;21.35;12.32;;;0.00;99.90;;;;;;5050033;28;20477;-70
2023/01/22 07:44:05;;;;;;;23.65;11.57;;;-0.10;99.90;;;;;;5041291;28;20030;-70
2023/01/22 07:46:31;;;;;;;27.60;11.45;;;-0.10;99.90;;;;;;5044494;28;20040;-70
2023/01/22 07:48:56;;;;;;;21.38;11.80;;;-0.10;99.90;;;;;;5052159;28;20029;-70
2023/01/22 07:51:22;;;;;;;23.23;11.68;;;-0.10;99.90;;;;;;5052525;28;20473;-70
2023/01/22 07:53:47;;;;;;;22.23;12.10;;;-0.10;99.90;;;;;;5052164;28;20073;-70
2023/01/22 07:56:13;;;;;;;22.73;11.00;;;-0.10;99.90;;;;;;5038358;28;20031;-70
2023/01/22 07:58:40;;;;;;;16.60;9.82;;;-0.10;99.90;;;;;;5053047;28;20060;-70
2023/01/22 08:01:06;;;;;;;20.83;10.02;;;-0.10;99.90;;;;;;5049926;28;20445;-70
2023/01/22 08:03:32;;;;;;;21.83;12.02;;;0.00;99.90;;;;;;5052327;28;20108;-70
2023/01/22 08:05:59;;;;;;;23.92;10.63;;;0.00;99.90;;;;;;5051990;28;20044;-70
2023/01/22 08:08:25;;;;;;;20.92;11.30;;;0.00;99.90;;;;;;5043983;28;20021;-71
2023/01/22 08:10:50;;;;;;;24.63;11.27;;;0.00;99.90;;;;;;5040256;28;20575;-70
2023/01/22 08:13:16;;;;;;;19.65;10.63;;;0.00;99.90;;;;;;5047687;28;20029;-70
2023/01/22 08:15:42;;;;;;;19.50;10.35;;;0.00;99.90;;;;;;5044087;28;20036;-70
2023/01/22 08:18:09;;;;;;;23.42;10.43;;;-0.10;99.90;;;;;;5034712;28;20028;-70
2023/01/22 08:20:35;;;;;;;17.58;9.98;;;-0.10;99.90;;;;;;5052488;28;20032;-70
2023/01/22 08:23:00;;;;;;;19.55;9.95;;;-0.20;99.90;;;;;;5052613;28;20040;-70
2023/01/22 08:25:27;;;;;;;20.35;9.88;;;-0.20;99.90;;;;;;5046624;28;20025;-70
2023/01/22 08:27:53;;;;;;;17.33;9.55;;;-0.20;99.90;;;;;;5035029;28;20028;-70
2023/01/22 08:30:19;;;;;;;18.92;9.38;;;-0.20;99.90;;;;;;5051307;28;20036;-70
2023/01/22 08:32:45;;;;;;;19.35;10.48;;;-0.20;99.90;;;;;;5052444;28;20075;-70
2023/01/22 08:35:11;;;;;;;19.90;10.43;;;-0.10;99.90;;;;;;5052579;28;20473;-70
2023/01/22 08:37:37;;;;;;;20.58;10.85;;;-0.10;99.90;;;;;;5049599;28;20049;-70
2023/01/22 08:40:04;;;;;;;20.42;11.80;;;0.00;99.90;;;;;;5052502;28;20029;-70
2023/01/22 08:42:29;;;;;;;18.75;11.07;;;0.00;99.90;;;;;;5052226;28;20052;-69
2023/01/22 08:44:55;;;;;;;21.50;10.77;;;0.10;99.90;;;;;;5050827;28;20060;-70
2023/01/22 08:47:20;;;;;;;23.83;11.75;;;0.10;99.90;;;;;;5047790;28;20443;-70
2023/01/22 08:49:46;;;;;;;20.52;11.30;;;0.10;99.90;;;;;;5052586;28;20028;-69
2023/01/22 08:52:11;;;;;;;18.55;11.00;;;0.20;99.90;;;;;;5051544;28;20079;-69
2023/01/22 08:54:37;;;;;;;21.02;10.90;;;0.20;99.90;;;;;;5051632;28;20401;-69
2023/01/22 08:57:03;;;;;;;25.05;11.95;;;0.30;99.90;;;;;;5050452;28;20033;-70
2023/01/22 08:59:28;;;;;;;19.63;10.93;;;0.30;99.90;;;;;;5052327;28;20044;-69
2023/01/22 09:01:56;;;;;;;18.70;10.27;;;0.30;99.90;;;;;;5052347;28;20094;-70
2023/01/22 09:04:21;;;;;;;20.75;11.13;;;0.30;99.90;;;;;;5052277;28;20020;-69
2023/01/22 09:06:47;;;;;;;23.85;11.07;;;0.40;99.90;;;;;;5050629;28;20040;-69
2023/01/22 09:09:12;;;;;;;19.02;11.05;;;0.40;99.90;;;;;;5050509;28;20021;-70
2023/01/22 09:11:38;;;;;;;20.63;11.18;;;0.40;99.90;;;;;;5051120;28;20530;-69
2023/01/22 09:14:07;;;;;;;19.75;11.13;;;0.40;99.90;;;;;;5047928;28;20057;-70
2023/01/22 09:16:32;;;;;;;22.13;11.75;;;0.40;99.90;;;;;;5050183;28;20108;-69
2023/01/22 09:18:58;;;;;;;20.85;11.20;;;0.40;99.90;;;;;;5051669;28;20109;-70
2023/01/22 09:21:24;;;;;;;20.85;10.95;;;0.40;99.90;;;;;;5049502;28;20071;-69
2023/01/22 09:23:49;;;;;;;19.60;11.20;;;0.50;99.90;;;;;;5033965;28;20056;-70
2023/01/22 09:26:15;;;;;;;16.17;9.65;;;0.40;99.90;;;;;;5050034;28;20434;-69
2023/01/22 09:28:41;;;;;;;17.85;9.18;;;0.50;99.90;;;;;;5047587;28;20044;-69
2023/01/22 09:31:08;;;;;;;18.77;10.25;;;0.50;99.90;;;;;;5045480;28;20041;-69
2023/01/22 09:33:33;;;;;;;15.73;9.52;;;0.50;99.90;;;;;;5050906;28;20032;-69
2023/01/22 09:36:10;;;;;;;18.63;9.82;;;0.50;99.90;;;;;;5048774;28;20033;-69
2023/01/22 09:38:36;;;;;;;16.80;10.07;;;0.60;99.90;;;;;;5051506;28;20025;-69
2023/01/22 09:41:10;;;;;;;19.33;11.48;;;0.60;99.90;;;;;;5049995;28;20017;-69
2023/01/22 09:43:53;;;;;;;19.60;11.60;;;0.60;99.90;;;;;;5051397;28;20028;-69
2023/01/22 09:46:43;;;;;;;14.40;8.80;;;0.60;99.90;;;;;;5048762;28;20108;-69
2023/01/22 09:49:20;;;;;;;16.45;10.35;;;0.60;99.90;;;;;;5038094;28;20107;-70
2023/01/22 09:51:52;;;;;;;16.80;10.13;;;0.70;99.90;;;;;;5044190;28;20174;-69
2023/01/22 09:54:17;;;;;;;16.45;9.45;;;0.70;99.90;;;;;;5045436;28;20413;-69
2023/01/22 09:56:49;;;;;;;18.23;10.57;;;0.70;99.90;;;;;;5044293;28;20026;-70
2023/01/22 09:59:20;;;;;;;14.90;9.70;;;0.80;99.90;;;;;;5050839;28;20048;-69
2023/01/22 10:01:52;;;;;;;15.38;9.50;;;0.70;99.90;;;;;;5051202;28;20086;-70
2023/01/22 10:04:39;;;;;;;15.55;9.73;;;0.80;99.90;;;;;;5033353;28;20407;-69
2023/01/22 10:07:14;;;;;;;16.83;7.97;;;0.80;99.90;;;;;;5049885;28;20025;-70
2023/01/22 10:09:44;;;;;;;16.67;9.52;;;0.80;99.90;;;;;;5050527;28;20029;-69
2023/01/22 10:12:12;;;;;;;14.48;8.73;;;0.80;99.90;;;;;;5048835;28;20089;-69
2023/01/22 10:14:38;;;;;;;17.38;9.85;;;0.80;99.90;;;;;;5050687;28;20029;-69
2023/01/22 10:17:21;;;;;;;14.57;8.88;;;0.80;99.90;;;;;;5048772;28;20037;-69
2023/01/22 10:19:52;;;;;;;16.38;9.50;;;0.80;99.90;;;;;;5050905;28;20028;-70
2023/01/22 10:22:26;;;;;;;16.80;9.23;;;0.90;99.90;;;;;;5050707;28;20393;-70
2023/01/22 10:24:52;;;;;;;14.70;8.43;;;0.90;99.90;;;;;;5040868;28;20033;-70
2023/01/22 10:27:32;;;;;;;16.08;9.05;;;0.90;99.90;;;;;;5044244;28;20025;-69
2023/01/22 10:30:03;;;;;;;15.65;9.40;;;0.90;99.90;;;;;;5044886;28;20059;-70
2023/01/22 10:32:30;;;;;;;15.32;9.05;;;1.00;99.90;;;;;;5034277;28;20103;-70
2023/01/22 10:35:05;;;;;;;16.15;8.57;;;1.00;99.90;;;;;;5036787;28;20021;-70
2023/01/22 10:37:49;;;;;;;15.90;9.82;;;1.00;99.90;;;;;;5044437;28;20493;-70
2023/01/22 10:40:36;;;;;;;16.70;8.77;;;1.00;99.90;;;;;;5044336;28;20036;-71
2023/01/22 10:43:11;;;;;;;14.45;8.65;;;1.10;99.90;;;;;;5039767;28;20565;-70
2023/01/22 10:45:38;;;;;;;16.08;9.75;;;1.10;99.90;;;;;;5050350;28;20029;-70
2023/01/22 10:48:14;;;;;;;15.75;8.45;;;1.10;99.90;;;;;;5043407;28;20067;-70
2023/01/22 10:50:41;;;;;;;14.38;8.93;;;1.10;99.90;;;;;;5046955;28;20112;-70
2023/01/22 10:53:33;;;;;;;16.10;9.15;;;1.10;99.90;;;;;;5043965;28;20055;-70
2023/01/22 10:56:00;;;;;;;20.73;9.50;;;1.10;99.90;;;;;;5042607;28;20029;-71
2023/01/22 10:58:35;;;;;;;14.07;8.85;;;1.10;99.90;;;;;;5040111;28;20029;-70
2023/01/22 11:01:18;;;;;;;16.63;10.55;;;1.20;99.90;;;;;;5046100;28;20041;-70
2023/01/22 11:03:44;;;;;;;20.02;11.35;;;1.20;99.90;;;;;;5047994;28;20021;-70
2023/01/22 11:06:18;;;;;;;14.80;9.65;;;1.20;99.90;;;;;;5049226;28;20041;-70
2023/01/22 11:08:56;;;;;;;25.27;14.88;;;1.30;99.90;;;;;;5048223;28;20051;-70
2023/01/22 11:11:36;;;;;;;17.20;10.43;;;1.30;99.90;;;;;;5052547;28;20041;-70
2023/01/22 11:14:09;;;;;;;19.15;9.57;;;1.30;99.90;;;;;;5050187;28;20025;-70
2023/01/22 11:16:37;;;;;;;17.52;10.15;;;1.30;99.90;;;;;;5053990;28;20040;-70
2023/01/22 11:19:12;;;;;;;13.57;8.80;;;1.30;99.90;;;;;;5049547;28;20532;-71
2023/01/22 11:21:44;;;;;;;14.77;9.07;;;1.40;99.90;;;;;;5054070;28;20064;-70
2023/01/22 11:24:14;;;;;;;;;;;1.40;99.90;;;;;;5044573;28;20536;-70
2023/01/22 11:26:56;;;;;;;14.23;8.75;;;1.40;99.90;;;;;;5044288;28;19947;-70
2023/01/22 11:29:28;;;;;;;17.90;8.75;;;1.40;99.90;;;;;;5048243;28;20048;-70
2023/01/22 11:32:35;;;;;;;18.30;9.65;;;1.40;99.90;;;;;;5049645;28;20103;-70
2023/01/22 11:35:28;;;;;;;14.73;8.20;;;1.40;99.90;;;;;;5042252;28;20033;-70
2023/01/22 11:38:21;;;;;;;20.10;9.43;;;1.40;99.90;;;;;;5044082;28;20075;-70
2023/01/22 11:41:17;;;;;;;14.40;9.63;;;1.40;99.90;;;;;;4985601;28;20041;-70
2023/01/22 11:44:04;;;;;;;13.45;8.02;;;1.40;99.90;;;;;;5049310;28;20116;-70
2023/01/22 11:46:53;;;;;;;16.60;9.27;;;1.40;99.90;;;;;;5053908;28;20199;-70
2023/01/22 11:49:31;;;;;;;16.52;9.07;;;1.40;99.90;;;;;;5051239;28;20057;-70
2023/01/22 11:52:29;;;;;;;15.10;8.93;;;1.40;99.90;;;;;;5052751;28;20040;-71
2023/01/22 11:55:04;;;;;;;18.52;9.27;;;1.40;99.90;;;;;;5052363;28;20049;-70
2023/01/22 11:57:36;;;;;;;14.13;8.90;;;1.40;99.90;;;;;;5053417;28;20039;-70
2023/01/22 12:00:35;;;;;;;16.03;9.80;;;1.40;99.90;;;;;;5051872;28;20045;-71
2023/01/22 12:03:54;;;;;;;15.02;9.43;;;1.50;99.90;;;;;;5026140;28;20128;-70
2023/01/22 12:06:43;;;;;;;14.13;8.15;;;1.50;99.90;;;;;;5032994;28;20060;-70
2023/01/22 12:09:22;;;;;;;13.68;8.95;;;1.50;99.90;;;;;;5037227;28;20109;-70
2023/01/22 12:12:34;;;;;;;16.73;9.63;;;1.50;99.90;;;;;;5054523;28;20484;-70
2023/01/22 12:15:17;;;;;;;16.45;8.85;;;1.50;99.90;;;;;;5038284;28;20022;-70
2023/01/22 12:18:25;;;;;;;13.60;8.68;;;1.50;99.90;;;;;;5044973;28;20040;-70
2023/01/22 12:21:21;;;;;;;16.27;9.65;;;1.50;99.90;;;;;;5051302;28;20025;-70
2023/01/22 12:23:52;;;;;;;17.70;9.43;;;1.60;99.90;;;;;;5033263;28;20033;-70
2023/01/22 12:26:29;;;;;;;15.90;9.30;;;1.50;99.90;;;;;;5050084;28;20040;-70
2023/01/22 12:29:20;;;;;;;14.57;9.02;;;1.60;99.90;;;;;;5045784;28;20036;-70
2023/01/22 12:32:01;;;;;;;12.50;8.25;;;1.70;99.90;;;;;;5052080;28;20534;-71
2023/01/22 12:34:36;;;;;;;13.05;8.32;;;1.70;99.90;;;;;;5047948;28;20749;-70
2023/01/22 12:37:04;;;;;;;13.70;8.85;;;1.80;99.90;;;;;;5032412;28;20084;-70
2023/01/22 12:39:51;;;;;;;14.32;9.05;;;1.80;99.90;;;;;;5038142;28;20020;-70
2023/01/22 12:42:34;;;;;;;14.93;9.18;;;1.90;99.90;;;;;;5053630;28;20033;-70
2023/01/22 12:45:26;;;;;;;16.92;9.57;;;1.90;99.90;;;;;;5050861;28;20047;-70
2023/01/22 12:48:06;;;;;;;19.50;9.23;;;2.00;99.90;;;;;;5052388;28;20029;-70
2023/01/22 12:50:32;;;;;;;16.48;9.27;;;2.00;99.90;;;;;;5051960;28;20078;-70
2023/01/22 12:53:19;;;;;;;13.35;9.43;;;2.10;99.90;;;;;;5051634;28;20040;-71
2023/01/22 12:55:55;;;;;;;17.13;9.90;;;2.10;99.90;;;;;;5050966;28;20048;-70